Time;durP1;ratioP1;P1;durP2;ratioP2;P2;SDS_P1;SDS_P2;PMS_P1;PMS_P2;Temp;Humidity;BMP_temperature;BMP_pressure;BME280_temperature;BME280_humidity;BME280_pressure;Samples;Min_cycle;Max_cycle;Signal;HPM_P1;HPM_P2
2023/01/04 00:00:00;;;;;;;12.55;5.60;;;;;;;;;;5014582;28;20140;-88
2023/01/04 00:02:26;;;;;;;9.57;4.72;;;;;;;;;;5007304;28;20083;-87
2023/01/04 00:04:52;;;;;;;8.00;4.53;;;;;;;;;;5021838;28;20096;-88
2023/01/04 00:10:39;;;;;;;5.63;4.33;;;;;;;;;;5027766;28;20404;-89
2023/01/04 00:13:04;;;;;;;8.45;4.85;;;;;;;;;;5026486;28;20026;-88
2023/01/04 00:15:30;;;;;;;8.98;4.15;;;;;;;;;;5030430;28;20491;-88
2023/01/04 00:17:55;;;;;;;7.15;4.63;;;;;;;;;;5009416;28;20025;-86
2023/01/04 00:20:21;;;;;;;12.02;4.70;;;;;;;;;;5038251;28;20030;-86
2023/01/04 00:22:47;;;;;;;9.48;5.05;;;;;;;;;;5008007;28;20042;-87
2023/01/04 00:25:12;;;;;;;11.35;4.68;;;;;;;;;;5029769;28;20018;-88
2023/01/04 00:27:37;;;;;;;7.05;4.82;;;;;;;;;;5010238;28;20026;-89
2023/01/04 00:30:03;;;;;;;10.07;4.80;;;;;;;;;;5013053;28;20026;-88
2023/01/04 00:32:30;;;;;;;9.38;4.60;;;;;;;;;;5027713;28;20034;-87
2023/01/04 00:34:55;;;;;;;7.93;4.90;;;;;;;;;;5011027;28;20020;-88
2023/01/04 00:37:21;;;;;;;5.90;4.72;;;;;;;;;;5009706;28;20022;-88
2023/01/04 00:39:46;;;;;;;7.00;4.72;;;;;;;;;;5030147;28;20033;-88
2023/01/04 00:42:11;;;;;;;6.72;4.18;;;;;;;;;;5009679;28;20029;-88
2023/01/04 00:44:37;;;;;;;7.38;4.75;;;;;;;;;;5029962;28;20043;-87
2023/01/04 00:47:03;;;;;;;8.15;4.90;;;;;;;;;;5029618;28;20017;-88
2023/01/04 00:49:29;;;;;;;8.05;4.50;;;;;;;;;;5015666;28;20029;-88
2023/01/04 00:51:55;;;;;;;7.68;4.50;;;;;;;;;;5036658;28;20120;-88
2023/01/04 00:54:21;;;;;;;7.10;4.65;;;;;;;;;;5035449;28;20025;-87
2023/01/04 00:56:47;;;;;;;6.70;4.32;;;;;;;;;;5015630;28;20036;-88
2023/01/04 00:59:15;;;;;;;7.03;4.45;;;;;;;;;;5034989;28;20077;-87
2023/01/04 01:01:41;;;;;;;5.57;3.72;;;;;;;;;;5021080;28;20564;-87
2023/01/04 01:04:11;;;;;;;7.97;3.90;;;;;;;;;;5029137;28;20030;-87
2023/01/04 01:06:36;;;;;;;6.68;4.35;;;;;;;;;;5048082;28;20097;-89
2023/01/04 01:09:02;;;;;;;6.85;3.88;;;;;;;;;;5014314;28;20041;-89
2023/01/04 01:11:29;;;;;;;7.13;4.00;;;;;;;;;;5006725;28;20032;-86
2023/01/04 01:13:55;;;;;;;6.25;3.78;;;;;;;;;;5024835;28;20085;-87
2023/01/04 01:16:22;;;;;;;5.78;4.25;;;;;;;;;;5005737;28;20464;-87
2023/01/04 01:22:20;;;;;;;5.78;4.00;;;;;;;;;;4970277;28;20041;-88
2023/01/04 01:24:45;;;;;;;7.28;3.90;;;;;;;;;;5011456;28;20026;-87
2023/01/04 01:27:10;;;;;;;5.40;3.92;;;;;;;;;;5003888;28;20022;-87
2023/01/04 01:29:36;;;;;;;6.20;4.10;;;;;;;;;;5024443;28;20028;-89
2023/01/04 01:32:01;;;;;;;6.15;4.00;;;;;;;;;;5025330;28;20025;-88
2023/01/04 01:34:27;;;;;;;6.82;3.83;;;;;;;;;;5009164;28;20452;-87
2023/01/04 01:36:52;;;;;;;7.50;4.70;;;;;;;;;;5003885;28;20025;-87
2023/01/04 01:39:18;;;;;;;4.60;3.58;;;;;;;;;;5001030;28;20108;-88
2023/01/04 01:41:43;;;;;;;8.25;5.18;;;;;;;;;;5005486;28;20033;-88
2023/01/04 01:44:30;;;;;;;5.43;3.65;;;;;;;;;;5033148;28;20025;-87
2023/01/04 01:46:56;;;;;;;7.43;4.07;;;;;;;;;;5038371;28;20033;-89
2023/01/04 01:49:37;;;;;;;7.75;4.43;;;;;;;;;;5041440;28;20002;-89
2023/01/04 01:52:05;;;;;;;8.45;4.65;;;;;;;;;;5027046;28;20021;-88
2023/01/04 01:54:43;;;;;;;6.68;3.90;;;;;;;;;;5030019;28;20025;-88
2023/01/04 01:57:14;;;;;;;6.32;4.22;;;;;;;;;;5046017;28;20001;-88
2023/01/04 01:59:42;;;;;;;7.55;4.40;;;;;;;;;;5020449;28;20029;-88
2023/01/04 02:02:09;;;;;;;8.80;4.30;;;;;;;;;;5046105;28;20028;-87
2023/01/04 02:04:37;;;;;;;7.00;3.75;;;;;;;;;;5048616;28;20060;-88
2023/01/04 02:07:03;;;;;;;6.13;3.67;;;;;;;;;;5039674;28;20061;-88
2023/01/04 02:09:30;;;;;;;5.97;4.10;;;;;;;;;;5022897;28;20042;-87
2023/01/04 02:11:55;;;;;;;5.28;3.50;;;;;;;;;;5031516;28;20097;-88
2023/01/04 02:14:26;;;;;;;7.60;4.70;;;;;;;;;;5039902;28;20033;-88
2023/01/04 02:16:51;;;;;;;16.15;4.95;;;;;;;;;;5036728;28;20021;-87
2023/01/04 02:19:55;;;;;;;6.80;3.53;;;;;;;;;;5035002;28;20040;-86
2023/01/04 02:22:42;;;;;;;4.75;3.63;;;;;;;;;;5004052;28;20045;-86
2023/01/04 02:25:07;;;;;;;6.22;3.97;;;;;;;;;;5000231;28;20018;-86
2023/01/04 02:28:02;;;;;;;5.30;3.28;;;;;;;;;;5010774;28;20014;-86
2023/01/04 02:30:43;;;;;;;6.72;3.63;;;;;;;;;;5017649;28;20052;-86
2023/01/04 02:33:36;;;;;;;7.38;3.83;;;;;;;;;;5026660;28;20026;-87
2023/01/04 02:36:31;;;;;;;4.40;3.28;;;;;;;;;;5026207;28;20025;-86
2023/01/04 02:39:24;;;;;;;5.18;3.13;;;;;;;;;;5028318;28;20114;-87
2023/01/04 02:41:53;;;;;;;8.57;4.05;;;;;;;;;;5033505;28;20371;-87
2023/01/04 02:50:29;;;;;;;5.75;3.70;;;;;;;;;;5020127;28;20525;-86
2023/01/04 02:50:30;;;;;;;4.45;3.10;;;;;;;;;;5034079;28;20029;-86
2023/01/04 02:53:05;;;;;;;3.60;2.83;;;;;;;;;;5025171;28;20045;-87
2023/01/04 02:56:06;;;;;;;7.30;3.13;;;;;;;;;;5038924;28;20030;-85
2023/01/04 02:58:51;;;;;;;3.28;2.55;;;;;;;;;;5031084;28;20018;-87
2023/01/04 03:07:58;;;;;;;5.00;3.50;;;;;;;;;;5016595;28;20060;-88
2023/01/04 03:10:52;;;;;;;4.53;3.40;;;;;;;;;;5023465;28;20037;-87
2023/01/04 03:13:25;;;;;;;7.55;3.85;;;;;;;;;;5021303;28;20038;-86
2023/01/04 03:15:56;;;;;;;6.63;4.00;;;;;;;;;;5014740;28;20034;-87
2023/01/04 03:18:28;;;;;;;6.95;4.07;;;;;;;;;;5024335;28;20047;-86
2023/01/04 03:20:56;;;;;;;5.97;4.50;;;;;;;;;;5027952;28;20075;-88
2023/01/04 03:37:48;;;;;;;7.57;3.45;;;;;;;;;;5024117;28;20052;-86
2023/01/04 03:49:08;;;;;;;5.07;3.03;;;;;;;;;;5027280;28;20056;-86
2023/01/04 03:51:36;;;;;;;6.22;3.05;;;;;;;;;;5029613;28;20017;-86
2023/01/04 03:54:07;;;;;;;4.22;2.45;;;;;;;;;;5037943;28;20029;-87
2023/01/04 03:56:36;;;;;;;4.35;2.92;;;;;;;;;;5037471;28;20025;-87
2023/01/04 03:59:01;;;;;;;2.80;2.30;;;;;;;;;;5023506;28;20048;-86
2023/01/04 04:01:27;;;;;;;4.53;3.00;;;;;;;;;;5036921;28;20033;-88
2023/01/04 04:09:22;;;;;;;6.60;3.15;;;;;;;;;;5038243;28;20052;-87
2023/01/04 04:11:47;;;;;;;3.88;3.20;;;;;;;;;;5029550;28;20045;-87
2023/01/04 04:14:13;;;;;;;4.78;3.15;;;;;;;;;;5014983;28;20046;-87
2023/01/04 04:16:38;;;;;;;5.95;3.40;;;;;;;;;;5011579;28;20463;-86
2023/01/04 04:19:04;;;;;;;7.25;3.45;;;;;;;;;;5016235;28;20024;-87
2023/01/04 04:21:29;;;;;;;6.18;3.22;;;;;;;;;;5031972;28;20033;-86
2023/01/04 04:23:55;;;;;;;5.65;3.22;;;;;;;;;;5029355;28;20041;-86
2023/01/04 04:26:21;;;;;;;5.00;3.10;;;;;;;;;;5010930;28;20112;-87
2023/01/04 04:28:46;;;;;;;4.22;2.67;;;;;;;;;;5019330;28;20018;-86
2023/01/04 04:31:12;;;;;;;3.50;2.53;;;;;;;;;;5026679;28;20022;-86
2023/01/04 04:33:37;;;;;;;4.38;2.63;;;;;;;;;;5005244;28;20034;-87
2023/01/04 04:36:03;;;;;;;3.17;2.40;;;;;;;;;;5030454;28;20026;-86
2023/01/04 04:38:29;;;;;;;2.67;2.45;;;;;;;;;;5024084;28;20041;-87
2023/01/04 04:43:38;;;;;;;3.08;2.13;;;;;;;;;;5032245;28;20037;-89
2023/01/04 04:46:03;;;;;;;4.70;2.28;;;;;;;;;;5034055;28;20116;-86
2023/01/04 04:48:29;;;;;;;3.50;1.98;;;;;;;;;;5000613;28;20089;-88
2023/01/04 04:50:54;;;;;;;4.25;2.58;;;;;;;;;;5006433;28;20064;-87
2023/01/04 04:53:20;;;;;;;2.38;2.17;;;;;;;;;;5014138;28;20091;-89
2023/01/04 04:55:45;;;;;;;2.05;1.85;;;;;;;;;;5025898;28;20086;-88
2023/01/04 04:58:10;;;;;;;2.90;1.95;;;;;;;;;;5007128;28;20060;-87
2023/01/04 05:00:36;;;;;;;2.60;1.77;;;;;;;;;;5026023;28;20029;-88
2023/01/04 05:03:01;;;;;;;1.65;1.45;;;;;;;;;;5037181;28;20434;-87
2023/01/04 05:05:27;;;;;;;3.92;1.65;;;;;;;;;;5027861;28;20130;-86
2023/01/04 05:07:53;;;;;;;2.92;1.80;;;;;;;;;;5038036;28;20021;-86
2023/01/04 05:10:18;;;;;;;2.40;1.40;;;;;;;;;;5018442;28;20068;-86
2023/01/04 05:12:59;;;;;;;1.58;1.45;;;;;;;;;;5027344;28;20022;-87
2023/01/04 05:15:37;;;;;;;2.38;1.60;;;;;;;;;;5009925;28;20025;-89
2023/01/04 05:18:03;;;;;;;1.63;1.52;;;;;;;;;;5017390;28;20025;-87
2023/01/04 05:20:29;;;;;;;1.50;1.40;;;;;;;;;;5035826;28;20021;-87
2023/01/04 05:22:54;;;;;;;0.90;0.90;;;;;;;;;;5036074;28;20048;-87
2023/01/04 05:25:20;;;;;;;3.17;0.93;;;;;;;;;;5017858;28;20112;-89
2023/01/04 05:27:45;;;;;;;1.80;1.38;;;;;;;;;;5014139;28;20056;-88
2023/01/04 05:32:57;;;;;;;2.85;1.38;;;;;;;;;;5018825;28;20053;-87
2023/01/04 05:35:23;;;;;;;4.22;1.02;;;;;;;;;;5018114;28;20104;-88
2023/01/04 05:37:48;;;;;;;0.70;0.70;;;;;;;;;;5001289;28;20071;-87
2023/01/04 05:40:14;;;;;;;0.98;0.95;;;;;;;;;;5007494;28;20022;-88
2023/01/04 05:42:39;;;;;;;0.98;0.98;;;;;;;;;;5025363;28;20075;-89
2023/01/04 05:45:05;;;;;;;2.08;1.13;;;;;;;;;;5027723;28;20052;-88
2023/01/04 05:47:31;;;;;;;1.23;1.10;;;;;;;;;;5027525;28;20025;-87
2023/01/04 05:49:56;;;;;;;0.82;0.82;;;;;;;;;;5007168;28;20033;-88
2023/01/04 05:52:22;;;;;;;1.10;1.00;;;;;;;;;;5021861;28;20017;-89
2023/01/04 05:54:47;;;;;;;0.88;0.80;;;;;;;;;;5019638;28;20029;-87
2023/01/04 05:57:13;;;;;;;2.70;1.10;;;;;;;;;;5024092;28;20040;-88
2023/01/04 05:59:39;;;;;;;1.50;1.33;;;;;;;;;;5006281;28;20502;-87
2023/01/04 06:02:06;;;;;;;2.55;1.38;;;;;;;;;;5034719;28;20120;-88
2023/01/04 06:04:31;;;;;;;3.25;1.40;;;;;;;;;;5034610;28;20024;-88
2023/01/04 06:06:57;;;;;;;1.85;1.35;;;;;;;;;;5017177;28;20025;-87
2023/01/04 06:09:23;;;;;;;1.58;1.10;;;;;;;;;;5035367;28;20022;-88
2023/01/04 06:11:49;;;;;;;3.40;1.58;;;;;;;;;;5035427;28;20132;-87
2023/01/04 06:14:14;;;;;;;1.20;1.10;;;;;;;;;;5005254;28;20041;-88
2023/01/04 06:16:40;;;;;;;2.15;1.40;;;;;;;;;;5013952;28;20116;-88
2023/01/04 06:19:05;;;;;;;5.55;1.20;;;;;;;;;;5031879;28;20480;-87
2023/01/04 06:21:31;;;;;;;2.35;1.20;;;;;;;;;;5033712;28;20029;-88
2023/01/04 06:23:56;;;;;;;1.17;1.02;;;;;;;;;;5016030;28;20030;-87
2023/01/04 06:26:21;;;;;;;1.27;1.00;;;;;;;;;;5009895;28;20040;-87
2023/01/04 06:28:47;;;;;;;1.55;1.38;;;;;;;;;;5032118;28;20112;-88
2023/01/04 06:31:12;;;;;;;1.00;1.00;;;;;;;;;;5028711;28;20018;-87
2023/01/04 06:33:38;;;;;;;1.10;1.00;;;;;;;;;;5040494;28;20033;-88
2023/01/04 06:36:04;;;;;;;3.47;1.17;;;;;;;;;;5030508;28;20095;-88
2023/01/04 06:38:31;;;;;;;1.88;1.00;;;;;;;;;;5033059;28;20101;-87
2023/01/04 06:40:56;;;;;;;1.02;0.93;;;;;;;;;;5023355;28;20022;-87
2023/01/04 06:43:22;;;;;;;1.65;0.93;;;;;;;;;;5024403;28;20047;-87
2023/01/04 06:45:48;;;;;;;0.98;0.95;;;;;;;;;;5036763;28;20037;-87
2023/01/04 06:48:13;;;;;;;1.65;1.23;;;;;;;;;;5041742;28;20101;-88
2023/01/04 06:50:39;;;;;;;0.85;0.70;;;;;;;;;;5019511;28;20033;-87
2023/01/04 06:53:04;;;;;;;2.47;1.00;;;;;;;;;;5018853;28;20101;-89
2023/01/04 06:55:30;;;;;;;0.63;0.63;;;;;;;;;;5010484;28;20032;-88
2023/01/04 06:57:56;;;;;;;0.95;0.80;;;;;;;;;;5035082;28;20426;-87
2023/01/04 07:00:21;;;;;;;0.73;0.63;;;;;;;;;;5014267;28;20065;-88
2023/01/04 07:02:47;;;;;;;0.70;0.63;;;;;;;;;;5030872;28;20226;-88
2023/01/04 07:05:12;;;;;;;0.80;0.80;;;;;;;;;;5025430;28;20030;-87
2023/01/04 07:07:37;;;;;;;2.83;0.90;;;;;;;;;;5036069;28;20095;-89
2023/01/04 07:10:03;;;;;;;1.10;1.10;;;;;;;;;;5015492;28;20026;-88
2023/01/04 07:12:28;;;;;;;0.88;0.88;;;;;;;;;;5031022;28;20045;-87
2023/01/04 07:14:54;;;;;;;0.70;0.70;;;;;;;;;;5025874;28;20176;-88
2023/01/04 07:17:19;;;;;;;1.10;1.00;;;;;;;;;;5037554;28;20043;-88
2023/01/04 07:19:44;;;;;;;1.88;0.75;;;;;;;;;;5039537;28;20029;-87
2023/01/04 07:22:10;;;;;;;1.45;1.30;;;;;;;;;;5017776;28;20112;-88
2023/01/04 07:24:36;;;;;;;0.73;0.73;;;;;;;;;;5014031;28;20058;-88
2023/01/04 07:27:01;;;;;;;2.00;0.70;;;;;;;;;;5010275;28;20089;-88
2023/01/04 07:29:27;;;;;;;1.55;0.93;;;;;;;;;;5002830;28;20095;-88
2023/01/04 07:31:53;;;;;;;0.88;0.73;;;;;;;;;;5018799;28;20064;-87
2023/01/04 07:34:21;;;;;;;4.18;0.80;;;;;;;;;;5039490;28;20021;-88
2023/01/04 07:36:47;;;;;;;0.95;0.95;;;;;;;;;;5010303;28;20030;-88
2023/01/04 07:39:13;;;;;;;1.90;0.68;;;;;;;;;;5036995;28;20040;-88
2023/01/04 07:41:39;;;;;;;1.45;0.82;;;;;;;;;;5020847;28;20017;-88
2023/01/04 07:44:06;;;;;;;1.00;0.88;;;;;;;;;;5020103;28;20033;-88
2023/01/04 07:46:32;;;;;;;0.82;0.82;;;;;;;;;;5015269;28;20395;-89
2023/01/04 07:48:58;;;;;;;2.10;0.73;;;;;;;;;;5014582;28;20071;-89
2023/01/04 07:51:23;;;;;;;1.85;0.93;;;;;;;;;;5018749;28;20021;-88
2023/01/04 07:53:49;;;;;;;1.50;0.75;;;;;;;;;;5014832;28;20040;-87
2023/01/04 07:56:15;;;;;;;1.30;0.90;;;;;;;;;;5019768;28;20032;-88
2023/01/04 07:58:41;;;;;;;0.95;0.70;;;;;;;;;;5042983;28;20029;-90
2023/01/04 08:01:07;;;;;;;2.85;1.08;;;;;;;;;;5042644;28;20063;-88
2023/01/04 08:03:32;;;;;;;0.70;0.63;;;;;;;;;;5036797;28;20025;-88
2023/01/04 08:06:02;;;;;;;1.23;0.88;;;;;;;;;;5050096;28;20077;-88
2023/01/04 08:08:27;;;;;;;1.10;0.88;;;;;;;;;;5059032;28;20099;-88
2023/01/04 08:10:52;;;;;;;6.85;1.00;;;;;;;;;;5051562;28;20057;-89
2023/01/04 08:13:18;;;;;;;1.05;0.70;;;;;;;;;;5060873;28;20040;-88
2023/01/04 08:15:43;;;;;;;1.90;0.88;;;;;;;;;;5060048;28;20696;-87
2023/01/04 08:18:08;;;;;;;0.50;0.50;;;;;;;;;;5060191;28;20037;-89
2023/01/04 08:20:34;;;;;;;1.60;0.80;;;;;;;;;;5044920;28;20024;-91
2023/01/04 08:22:59;;;;;;;1.23;0.63;;;;;;;;;;5024117;28;20033;-89
2023/01/04 08:25:24;;;;;;;3.05;0.90;;;;;;;;;;5040974;28;20042;-88
2023/01/04 08:28:25;;;;;;;2.05;0.90;;;;;;;;;;5012659;28;20101;-89
2023/01/04 08:30:50;;;;;;;1.48;0.70;;;;;;;;;;5000313;28;20107;-88
2023/01/04 08:33:16;;;;;;;1.15;0.73;;;;;;;;;;5009997;28;20048;-90
2023/01/04 08:35:41;;;;;;;1.50;0.70;;;;;;;;;;5015271;28;20033;-87
2023/01/04 08:38:07;;;;;;;1.75;0.82;;;;;;;;;;5019535;28;20041;-89
2023/01/04 08:40:32;;;;;;;2.42;0.70;;;;;;;;;;5018453;28;20026;-90
2023/01/04 08:42:58;;;;;;;1.05;0.45;;;;;;;;;;5025306;28;20096;-89
2023/01/04 08:45:23;;;;;;;0.43;0.43;;;;;;;;;;5035866;28;20033;-90
2023/01/04 08:47:49;;;;;;;0.68;0.68;;;;;;;;;;5026426;28;20030;-88
2023/01/04 08:50:15;;;;;;;0.60;0.60;;;;;;;;;;5024614;28;20040;-91
2023/01/04 08:52:41;;;;;;;0.80;0.70;;;;;;;;;;5043682;28;20021;-87
2023/01/04 08:55:08;;;;;;;0.63;0.63;;;;;;;;;;5036324;28;20030;-88
2023/01/04 08:57:33;;;;;;;2.10;0.70;;;;;;;;;;5022198;28;20037;-89
2023/01/04 08:59:59;;;;;;;1.45;1.08;;;;;;;;;;5014798;28;20038;-91
2023/01/04 09:02:26;;;;;;;1.23;0.68;;;;;;;;;;5020452;28;20033;-88
2023/01/04 09:04:58;;;;;;;0.45;0.40;;;;;;;;;;5018338;28;20084;-89
2023/01/04 09:07:24;;;;;;;0.80;0.50;;;;;;;;;;5012151;28;20422;-89
2023/01/04 09:09:49;;;;;;;1.85;0.60;;;;;;;;;;5036768;28;20536;-89
2023/01/04 09:12:17;;;;;;;4.18;0.68;;;;;;;;;;5018235;28;20025;-88
2023/01/04 09:14:42;;;;;;;2.20;0.60;;;;;;;;;;5018518;28;20085;-87
2023/01/04 09:17:08;;;;;;;1.23;0.90;;;;;;;;;;5036669;28;20483;-87
2023/01/04 09:19:33;;;;;;;1.00;1.00;;;;;;;;;;5018186;28;20129;-87
2023/01/04 09:21:58;;;;;;;0.55;0.55;;;;;;;;;;5017942;28;20025;-87
2023/01/04 09:24:24;;;;;;;3.13;0.85;;;;;;;;;;5027778;28;20053;-86
2023/01/04 09:26:49;;;;;;;3.30;0.93;;;;;;;;;;5018283;28;20044;-86
2023/01/04 09:29:15;;;;;;;1.60;1.00;;;;;;;;;;5034722;28;20062;-87
2023/01/04 09:31:40;;;;;;;0.50;0.50;;;;;;;;;;5030616;28;20376;-87
2023/01/04 09:34:06;;;;;;;2.13;0.90;;;;;;;;;;5039940;28;20009;-87
2023/01/04 09:36:31;;;;;;;3.35;0.88;;;;;;;;;;5023118;28;20025;-87
2023/01/04 09:38:56;;;;;;;0.70;0.70;;;;;;;;;;5001295;28;20030;-86
2023/01/04 09:41:22;;;;;;;0.40;0.40;;;;;;;;;;5027733;28;20025;-87
2023/01/04 09:43:51;;;;;;;2.70;1.23;;;;;;;;;;5029967;28;20036;-87
2023/01/04 09:46:39;;;;;;;1.25;0.75;;;;;;;;;;5010729;28;20056;-86
2023/01/04 09:49:29;;;;;;;0.80;0.75;;;;;;;;;;5008521;28;20099;-86
2023/01/04 09:52:02;;;;;;;2.47;1.00;;;;;;;;;;5013214;28;20495;-88
2023/01/04 09:54:41;;;;;;;1.23;0.50;;;;;;;;;;5013986;28;20392;-88
2023/01/04 09:57:17;;;;;;;0.88;0.80;;;;;;;;;;5026793;28;20013;-87
2023/01/04 09:59:42;;;;;;;0.70;0.70;;;;;;;;;;5026637;28;20438;-87
2023/01/04 10:02:17;;;;;;;8.80;1.20;;;;;;;;;;5016116;28;20484;-85
2023/01/04 10:04:49;;;;;;;1.00;0.63;;;;;;;;;;5035310;28;20026;-87
2023/01/04 10:07:25;;;;;;;1.98;0.60;;;;;;;;;;5031362;28;20079;-87
2023/01/04 10:09:51;;;;;;;0.65;0.65;;;;;;;;;;5036381;28;20036;-87
2023/01/04 10:12:40;;;;;;;1.42;1.08;;;;;;;;;;5010301;28;20025;-87
2023/01/04 10:15:21;;;;;;;2.20;0.80;;;;;;;;;;5013555;28;20053;-87
2023/01/04 10:17:57;;;;;;;4.80;0.73;;;;;;;;;;5007768;28;20029;-87
2023/01/04 10:20:48;;;;;;;0.82;0.52;;;;;;;;;;5025473;28;20060;-86
2023/01/04 10:23:51;;;;;;;0.35;0.35;;;;;;;;;;5009163;28;20069;-87
2023/01/04 10:26:35;;;;;;;1.40;0.80;;;;;;;;;;5025134;28;20037;-87
2023/01/04 10:29:28;;;;;;;0.52;0.52;;;;;;;;;;5026432;28;20021;-87
2023/01/04 10:32:03;;;;;;;2.03;0.88;;;;;;;;;;5032542;28;20029;-88
2023/01/04 10:34:34;;;;;;;0.98;0.70;;;;;;;;;;5023672;28;20041;-87
2023/01/04 10:37:10;;;;;;;1.50;0.80;;;;;;;;;;5011077;28;20092;-88
2023/01/04 10:39:36;;;;;;;1.10;0.80;;;;;;;;;;5032232;28;20032;-87
2023/01/04 10:42:16;;;;;;;1.60;0.90;;;;;;;;;;5029628;28;20030;-88
2023/01/04 10:45:14;;;;;;;0.68;0.63;;;;;;;;;;5022434;28;20099;-87
2023/01/04 10:47:52;;;;;;;5.38;0.98;;;;;;;;;;5023826;28;20484;-87
2023/01/04 10:50:25;;;;;;;0.57;0.57;;;;;;;;;;5029531;28;20079;-87
2023/01/04 10:52:59;;;;;;;0.60;0.60;;;;;;;;;;5018427;28;20033;-87
2023/01/04 10:55:30;;;;;;;1.58;0.80;;;;;;;;;;5034943;28;20017;-86
2023/01/04 10:58:07;;;;;;;1.05;0.60;;;;;;;;;;5035178;28;20056;-88
2023/01/04 11:00:52;;;;;;;0.70;0.70;;;;;;;;;;5035565;28;20026;-85
2023/01/04 11:03:30;;;;;;;3.08;0.70;;;;;;;;;;5038473;28;20036;-88
2023/01/04 11:06:23;;;;;;;0.80;0.75;;;;;;;;;;5021344;28;20499;-87
2023/01/04 11:08:55;;;;;;;0.77;0.75;;;;;;;;;;5001610;28;20041;-86
2023/01/04 11:11:37;;;;;;;1.45;0.75;;;;;;;;;;5036945;28;20029;-89
2023/01/04 11:14:03;;;;;;;;;;;;;;;;;;5040227;28;20372;-87
2023/01/04 11:16:36;;;;;;;2.20;0.70;;;;;;;;;;5019545;28;19917;-90
2023/01/04 11:19:04;;;;;;;2.13;0.60;;;;;;;;;;5037212;28;20021;-90
2023/01/04 11:21:36;;;;;;;1.67;0.80;;;;;;;;;;5029556;28;20117;-88
2023/01/04 11:24:05;;;;;;;0.80;0.43;;;;;;;;;;5015255;28;20026;-90
2023/01/04 11:26:38;;;;;;;0.88;0.82;;;;;;;;;;5020069;28;20025;-89
2023/01/04 11:29:06;;;;;;;2.15;1.13;;;;;;;;;;4999226;28;20065;-88
2023/01/04 11:31:53;;;;;;;1.45;0.80;;;;;;;;;;5030303;28;20170;-91
2023/01/04 11:34:37;;;;;;;5.75;1.00;;;;;;;;;;5018546;28;20029;-90
2023/01/04 11:37:03;;;;;;;1.35;0.90;;;;;;;;;;5018987;28;20025;-88
2023/01/04 11:39:29;;;;;;;3.33;0.60;;;;;;;;;;5009520;28;20021;-89
2023/01/04 11:42:03;;;;;;;0.50;0.50;;;;;;;;;;5018384;28;20082;-90
2023/01/04 11:44:28;;;;;;;0.40;0.40;;;;;;;;;;5037184;28;20498;-90
2023/01/04 11:47:18;;;;;;;1.48;0.90;;;;;;;;;;5019496;28;20029;-90
2023/01/04 11:49:44;;;;;;;1.83;0.73;;;;;;;;;;5029866;28;20022;-89
2023/01/04 11:52:36;;;;;;;0.65;0.60;;;;;;;;;;5020083;28;20029;-92
2023/01/04 11:55:25;;;;;;;2.83;0.70;;;;;;;;;;5034433;28;20021;-91
2023/01/04 11:58:10;;;;;;;2.50;1.00;;;;;;;;;;5029287;28;20368;-91
2023/01/04 12:00:36;;;;;;;0.82;0.60;;;;;;;;;;5016276;28;20048;-91
2023/01/04 12:03:16;;;;;;;6.95;1.13;;;;;;;;;;5038732;28;20383;-89
2023/01/04 12:05:42;;;;;;;0.80;0.80;;;;;;;;;;5012871;28;20112;-91
2023/01/04 12:08:30;;;;;;;1.00;0.60;;;;;;;;;;5005572;28;20013;-90
2023/01/04 12:11:03;;;;;;;1.27;0.65;;;;;;;;;;5022468;28;20033;-91
2023/01/04 12:13:31;;;;;;;1.30;0.88;;;;;;;;;;5013549;28;20028;-90
2023/01/04 12:16:19;;;;;;;0.80;0.75;;;;;;;;;;5006837;28;20083;-89
2023/01/04 12:18:45;;;;;;;0.85;0.60;;;;;;;;;;5019600;28;20044;-89
2023/01/04 12:21:22;;;;;;;0.70;0.70;;;;;;;;;;5037540;28;20467;-89
2023/01/04 12:23:49;;;;;;;4.57;0.90;;;;;;;;;;5008374;28;20034;-88
2023/01/04 12:26:15;;;;;;;1.17;0.70;;;;;;;;;;5032383;28;20044;-88
2023/01/04 12:28:43;;;;;;;0.80;0.80;;;;;;;;;;5030512;28;20022;-89
2023/01/04 12:31:17;;;;;;;1.27;1.05;;;;;;;;;;5026296;28;20034;-89
2023/01/04 12:33:50;;;;;;;0.60;0.60;;;;;;;;;;5029359;28;20018;-90
2023/01/04 12:36:40;;;;;;;1.65;0.82;;;;;;;;;;5013356;28;20056;-88
2023/01/04 12:39:12;;;;;;;1.08;0.65;;;;;;;;;;5016354;28;20492;-89
2023/01/04 12:41:40;;;;;;;4.03;0.85;;;;;;;;;;5026476;28;20032;-89
2023/01/04 12:44:39;;;;;;;3.25;0.95;;;;;;;;;;5019595;28;20041;-89
2023/01/04 12:50:19;;;;;;;3.30;0.98;;;;;;;;;;5027839;28;20044;-89
2023/01/04 12:52:47;;;;;;;0.95;0.65;;;;;;;;;;5006613;28;20022;-88
2023/01/04 12:55:31;;;;;;;1.23;0.70;;;;;;;;;;5024235;28;20018;-88
2023/01/04 12:58:28;;;;;;;2.75;0.90;;;;;;;;;;5002079;28;20026;-88
2023/01/04 13:00:54;;;;;;;2.40;0.70;;;;;;;;;;4988901;28;1104992;-87
2023/01/04 13:03:19;;;;;;;1.38;0.85;;;;;;;;;;5041701;28;20068;-88
2023/01/04 13:05:55;;;;;;;1.95;0.60;;;;;;;;;;5029414;28;20040;-88
2023/01/04 13:08:21;;;;;;;0.75;0.32;;;;;;;;;;5021203;28;20052;-88
2023/01/04 13:10:50;;;;;;;1.65;0.60;;;;;;;;;;5037001;28;20033;-88
2023/01/04 13:13:44;;;;;;;0.63;0.63;;;;;;;;;;5039987;28;20021;-88
2023/01/04 13:16:24;;;;;;;0.75;0.70;;;;;;;;;;5022266;28;20064;-89
2023/01/04 13:19:17;;;;;;;3.50;0.90;;;;;;;;;;5021879;28;20574;-88
2023/01/04 13:21:44;;;;;;;2.75;0.43;;;;;;;;;;5034413;28;20041;-88
2023/01/04 13:24:22;;;;;;;0.52;0.40;;;;;;;;;;5034565;28;20034;-86
2023/01/04 13:26:52;;;;;;;1.10;0.70;;;;;;;;;;5023454;28;20030;-87
2023/01/04 13:29:29;;;;;;;0.55;0.55;;;;;;;;;;5009134;28;20082;-89
2023/01/04 13:32:01;;;;;;;1.83;0.73;;;;;;;;;;5036269;28;20033;-89
2023/01/04 13:34:32;;;;;;;0.60;0.60;;;;;;;;;;5025520;28;20037;-89
2023/01/04 13:37:36;;;;;;;1.65;1.23;;;;;;;;;;5039698;28;20037;-89
2023/01/04 13:40:25;;;;;;;2.53;0.70;;;;;;;;;;5028852;28;20090;-89
2023/01/04 13:43:06;;;;;;;3.25;0.80;;;;;;;;;;5036547;28;20032;-90
2023/01/04 13:45:40;;;;;;;0.50;0.50;;;;;;;;;;5052712;28;20029;-89
2023/01/04 13:48:11;;;;;;;1.00;0.73;;;;;;;;;;5053445;28;20026;-89
2023/01/04 13:50:48;;;;;;;0.73;0.73;;;;;;;;;;5040303;28;20009;-89
2023/01/04 13:53:22;;;;;;;5.50;0.60;;;;;;;;;;5048692;28;20078;-89
2023/01/04 13:55:58;;;;;;;2.95;0.68;;;;;;;;;;5030934;28;20025;-87
2023/01/04 13:58:26;;;;;;;1.45;0.73;;;;;;;;;;5042956;28;21647;-89
2023/01/04 14:01:06;;;;;;;1.52;0.52;;;;;;;;;;5024413;28;20017;-89
2023/01/04 14:03:42;;;;;;;3.25;0.70;;;;;;;;;;5001735;28;20030;-87
2023/01/04 14:06:17;;;;;;;1.27;0.98;;;;;;;;;;5007333;28;20030;-89
2023/01/04 14:08:51;;;;;;;1.85;0.60;;;;;;;;;;5029394;28;20036;-87
2023/01/04 14:11:57;;;;;;;0.68;0.68;;;;;;;;;;5019701;28;20028;-87
2023/01/04 14:14:12;;;;;;;0.55;0.55;;;;;;;;;;5026333;28;20031;-88
2023/01/04 14:16:37;;;;;;;0.47;0.47;;;;;;;;;;5012703;28;20599;-88
2023/01/04 14:19:34;;;;;;;0.68;0.45;;;;;;;;;;5012737;28;20032;-90
2023/01/04 14:21:59;;;;;;;1.65;0.60;;;;;;;;;;5031857;28;20095;-89
2023/01/04 14:24:32;;;;;;;0.73;0.50;;;;;;;;;;5036262;28;20037;-90
2023/01/04 14:26:57;;;;;;;0.43;0.43;;;;;;;;;;5004469;28;20128;-88
2023/01/04 14:29:30;;;;;;;1.63;0.77;;;;;;;;;;5007300;28;20050;-92
2023/01/04 14:31:56;;;;;;;1.02;0.70;;;;;;;;;;5027744;28;20109;-88
2023/01/04 14:34:21;;;;;;;0.50;0.50;;;;;;;;;;5016158;28;20025;-89
2023/01/04 14:36:47;;;;;;;0.55;0.50;;;;;;;;;;5031947;28;20160;-90
2023/01/04 14:39:25;;;;;;;1.70;0.70;;;;;;;;;;5020513;28;20028;-89
2023/01/04 14:41:53;;;;;;;0.60;0.60;;;;;;;;;;5025346;28;20036;-89
2023/01/04 14:44:27;;;;;;;0.95;0.73;;;;;;;;;;5014989;28;20107;-89
2023/01/04 14:46:55;;;;;;;0.82;0.70;;;;;;;;;;5030767;28;20510;-89
2023/01/04 14:49:21;;;;;;;0.60;0.60;;;;;;;;;;5027336;28;20034;-90
2023/01/04 14:51:52;;;;;;;0.55;0.55;;;;;;;;;;5030361;28;20048;-88
2023/01/04 14:54:19;;;;;;;2.83;1.13;;;;;;;;;;5031003;28;20019;-88
2023/01/04 14:56:44;;;;;;;1.00;0.80;;;;;;;;;;5019713;28;20156;-86
2023/01/04 14:59:30;;;;;;;1.55;0.80;;;;;;;;;;5019536;28;20033;-88
2023/01/04 15:01:56;;;;;;;1.48;0.90;;;;;;;;;;5031355;28;20034;-89
2023/01/04 15:04:23;;;;;;;0.85;0.45;;;;;;;;;;5034731;28;20143;-88
2023/01/04 15:06:55;;;;;;;0.70;0.70;;;;;;;;;;5002002;28;20030;-87
2023/01/04 15:09:21;;;;;;;3.67;0.80;;;;;;;;;;5036784;28;20073;-87
2023/01/04 15:11:46;;;;;;;0.68;0.60;;;;;;;;;;5022658;28;20507;-87
2023/01/04 15:14:12;;;;;;;2.72;0.60;;;;;;;;;;5039280;28;20025;-87
2023/01/04 15:16:38;;;;;;;0.73;0.50;;;;;;;;;;5039047;28;20030;-88
2023/01/04 15:19:28;;;;;;;2.58;0.68;;;;;;;;;;5023521;28;20021;-87
2023/01/04 15:21:54;;;;;;;2.40;0.82;;;;;;;;;;5027475;28;20033;-87
2023/01/04 15:24:19;;;;;;;1.48;0.60;;;;;;;;;;5022449;28;20025;-87
2023/01/04 15:26:44;;;;;;;0.82;0.68;;;;;;;;;;5039954;28;20029;-87
2023/01/04 15:29:18;;;;;;;0.65;0.65;;;;;;;;;;5039698;28;20430;-87
2023/01/04 15:31:44;;;;;;;2.97;0.63;;;;;;;;;;5044966;28;20041;-88
2023/01/04 15:34:09;;;;;;;0.50;0.50;;;;;;;;;;5016741;28;20711;-87
2023/01/04 15:36:37;;;;;;;0.70;0.60;;;;;;;;;;5027430;28;20057;-88
2023/01/04 15:39:03;;;;;;;0.55;0.40;;;;;;;;;;5036931;28;20053;-88
2023/01/04 15:44:18;;;;;;;0.60;0.60;;;;;;;;;;5034053;28;20038;-87
2023/01/04 15:46:43;;;;;;;0.80;0.80;;;;;;;;;;5018259;28;20037;-88
2023/01/04 15:49:08;;;;;;;0.55;0.30;;;;;;;;;;5032462;28;20028;-89
2023/01/04 15:51:33;;;;;;;1.55;0.70;;;;;;;;;;5012920;28;20116;-86
2023/01/04 15:54:00;;;;;;;0.70;0.52;;;;;;;;;;5038969;28;20063;-87
2023/01/04 15:56:28;;;;;;;0.85;0.60;;;;;;;;;;5024847;28;20033;-88
2023/01/04 15:58:53;;;;;;;1.33;0.47;;;;;;;;;;5040327;28;20025;-89